RWL140 EDLN-EDDK
Flight info
| Callsign | RWL140 |
|---|---|
| Flight time | N/A |
| Altitude | 5000 |
| Route | NVO DCT ERUKI |
| Aircraft | PA44/L-SDFGRY/S |
Departure
| Time | 2026-04-26 16:02 |
|---|---|
| Airport | Mönchengladbach Airport (EDLN) |
Arrival
| Time | N/A |
|---|---|
| Airport | Cologne Bonn Airport (EDDK) |
| Time | Latitude | Longitude | Altitude | Speed | Heading |
|---|---|---|---|---|---|
| 2026-04-26 15:28 | 51.23183 | 6.49715 | 125 ft | 0 kts | 36° |
| 2026-04-26 15:35 | 51.23197 | 6.49740 | 120 ft | 8 kts | 79° |
| 2026-04-26 15:36 | 51.23163 | 6.49819 | 125 ft | 9 kts | 170° |
| 2026-04-26 15:36 | 51.23140 | 6.49783 | 125 ft | 0 kts | 218° |
| 2026-04-26 15:57 | 51.23135 | 6.49777 | 125 ft | 3 kts | 217° |
| 2026-04-26 15:57 | 51.23112 | 6.49798 | 124 ft | 9 kts | 68° |
| 2026-04-26 15:57 | 51.23137 | 6.49838 | 125 ft | 7 kts | 35° |
| 2026-04-26 15:58 | 51.23195 | 6.49762 | 125 ft | 11 kts | 308° |
| 2026-04-26 15:58 | 51.23245 | 6.49662 | 125 ft | 8 kts | 316° |
| 2026-04-26 15:58 | 51.23292 | 6.49689 | 125 ft | 5 kts | 39° |
| 2026-04-26 15:58 | 51.23295 | 6.49694 | 125 ft | 0 kts | 38° |
| 2026-04-26 15:59 | 51.23316 | 6.49719 | 122 ft | 10 kts | 37° |
| 2026-04-26 15:59 | 51.23363 | 6.49783 | 121 ft | 4 kts | 52° |
| 2026-04-26 15:59 | 51.23352 | 6.49819 | 121 ft | 0 kts | 128° |
| 2026-04-26 16:01 | 51.23247 | 6.50035 | 123 ft | 60 kts | 131° |
| 2026-04-26 16:01 | 51.22863 | 6.50706 | 260 ft | 93 kts | 137° |
| 2026-04-26 16:02 | 51.22334 | 6.51425 | 620 ft | 106 kts | 141° |
| 2026-04-26 16:02 | 51.21732 | 6.52146 | 980 ft | 109 kts | 142° |
| 2026-04-26 16:02 | 51.21177 | 6.52982 | 1298 ft | 110 kts | 132° |
| 2026-04-26 16:02 | 51.21025 | 6.53284 | 1418 ft | 107 kts | 124° |
| 2026-04-26 16:03 | 51.20236 | 6.54883 | 1937 ft | 114 kts | 133° |
| 2026-04-26 16:03 | 51.19679 | 6.55771 | 2235 ft | 115 kts | 136° |
| 2026-04-26 16:03 | 51.19044 | 6.56604 | 2443 ft | 122 kts | 140° |
| 2026-04-26 16:03 | 51.18349 | 6.57442 | 2723 ft | 127 kts | 151° |
| 2026-04-26 16:04 | 51.17812 | 6.57852 | 2857 ft | 134 kts | 155° |
| 2026-04-26 16:04 | 51.16591 | 6.58532 | 2914 ft | 153 kts | 176° |
| 2026-04-26 16:04 | 51.15518 | 6.58540 | 2955 ft | 151 kts | 181° |
| 2026-04-26 16:04 | 51.14475 | 6.58408 | 3135 ft | 151 kts | 187° |
| 2026-04-26 16:05 | 51.13427 | 6.58304 | 3266 ft | 151 kts | 182° |
| 2026-04-26 16:05 | 51.12380 | 6.58272 | 3409 ft | 148 kts | 178° |
| 2026-04-26 16:05 | 51.11702 | 6.58396 | 3591 ft | 143 kts | 170° |
| 2026-04-26 16:05 | 51.10412 | 6.58749 | 3920 ft | 141 kts | 172° |
| 2026-04-26 16:06 | 51.09776 | 6.58888 | 4077 ft | 136 kts | 173° |
| 2026-04-26 16:06 | 51.08857 | 6.59067 | 4324 ft | 130 kts | 174° |
| 2026-04-26 16:06 | 51.07969 | 6.59223 | 4572 ft | 127 kts | 175° |
| 2026-04-26 16:06 | 51.07106 | 6.59379 | 4822 ft | 123 kts | 175° |
| 2026-04-26 16:07 | 51.06262 | 6.59528 | 5074 ft | 121 kts | 175° |
| 2026-04-26 16:07 | 51.05421 | 6.59669 | 5325 ft | 124 kts | 176° |
| 2026-04-26 16:07 | 51.04550 | 6.59823 | 5588 ft | 130 kts | 176° |
| 2026-04-26 16:07 | 51.03655 | 6.59976 | 5809 ft | 129 kts | 175° |
| 2026-04-26 16:08 | 51.02661 | 6.60149 | 5580 ft | 155 kts | 175° |
| 2026-04-26 16:08 | 51.01530 | 6.60342 | 5361 ft | 171 kts | 175° |
| 2026-04-26 16:08 | 51.00324 | 6.60550 | 5125 ft | 176 kts | 175° |
| 2026-04-26 16:08 | 50.99095 | 6.60759 | 4887 ft | 179 kts | 175° |
| 2026-04-26 16:09 | 50.97862 | 6.60974 | 4761 ft | 173 kts | 175° |
| 2026-04-26 16:09 | 50.96709 | 6.61183 | 4837 ft | 162 kts | 175° |
| 2026-04-26 16:09 | 50.95614 | 6.61363 | 4907 ft | 157 kts | 176° |
| 2026-04-26 16:09 | 50.94541 | 6.61533 | 4970 ft | 156 kts | 175° |
| 2026-04-26 16:10 | 50.93451 | 6.61735 | 4950 ft | 157 kts | 175° |
| 2026-04-26 16:10 | 50.92364 | 6.61928 | 4946 ft | 157 kts | 175° |
| 2026-04-26 16:10 | 50.91280 | 6.62109 | 4951 ft | 157 kts | 175° |
| 2026-04-26 16:10 | 50.90209 | 6.62455 | 4949 ft | 160 kts | 152° |
| 2026-04-26 16:11 | 50.89474 | 6.63754 | 4927 ft | 159 kts | 122° |
| 2026-04-26 16:11 | 50.88856 | 6.65221 | 4932 ft | 161 kts | 123° |
| 2026-04-26 16:11 | 50.88230 | 6.66669 | 4930 ft | 158 kts | 123° |
| 2026-04-26 16:11 | 50.87607 | 6.68123 | 4946 ft | 163 kts | 123° |
| 2026-04-26 16:12 | 50.86972 | 6.69610 | 4946 ft | 162 kts | 123° |
| 2026-04-26 16:12 | 50.86345 | 6.71071 | 4942 ft | 159 kts | 122° |
| 2026-04-26 16:12 | 50.85104 | 6.73963 | 4944 ft | 160 kts | 123° |
| 2026-04-26 16:13 | 50.84470 | 6.75432 | 4942 ft | 162 kts | 123° |
| 2026-04-26 16:13 | 50.83835 | 6.76901 | 4943 ft | 161 kts | 123° |
| 2026-04-26 16:13 | 50.83209 | 6.78378 | 4945 ft | 162 kts | 123° |
| 2026-04-26 16:13 | 50.82578 | 6.79855 | 4951 ft | 162 kts | 123° |
| 2026-04-26 16:14 | 50.81946 | 6.81329 | 4953 ft | 162 kts | 123° |
| 2026-04-26 16:14 | 50.81308 | 6.82806 | 4951 ft | 163 kts | 123° |
| 2026-04-26 16:14 | 50.80055 | 6.85728 | 4945 ft | 158 kts | 123° |
| 2026-04-26 16:15 | 50.79441 | 6.87155 | 4945 ft | 157 kts | 123° |
| 2026-04-26 16:15 | 50.78826 | 6.88587 | 4934 ft | 157 kts | 123° |
| 2026-04-26 16:15 | 50.78215 | 6.90015 | 4933 ft | 156 kts | 123° |
| 2026-04-26 16:16 | 50.77004 | 6.92831 | 4938 ft | 156 kts | 123° |
| 2026-04-26 16:16 | 50.76387 | 6.94259 | 4942 ft | 158 kts | 123° |
| 2026-04-26 16:16 | 50.75773 | 6.95698 | 4947 ft | 158 kts | 123° |
| 2026-04-26 16:16 | 50.75152 | 6.97140 | 4943 ft | 159 kts | 123° |
| 2026-04-26 16:17 | 50.74535 | 6.98587 | 4949 ft | 159 kts | 123° |
| 2026-04-26 16:17 | 50.74072 | 7.00150 | 4935 ft | 157 kts | 103° |
| 2026-04-26 16:17 | 50.73797 | 7.01809 | 4938 ft | 156 kts | 103° |
| 2026-04-26 16:17 | 50.73515 | 7.03463 | 4939 ft | 156 kts | 103° |
| 2026-04-26 16:18 | 50.73231 | 7.05121 | 4943 ft | 157 kts | 103° |
| 2026-04-26 16:18 | 50.72663 | 7.08407 | 4937 ft | 156 kts | 103° |
| 2026-04-26 16:19 | 50.72094 | 7.11712 | 4935 ft | 156 kts | 103° |
| 2026-04-26 16:19 | 50.71817 | 7.13359 | 4938 ft | 155 kts | 99° |
| 2026-04-26 16:19 | 50.71749 | 7.16717 | 4933 ft | 153 kts | 88° |
| 2026-04-26 16:20 | 50.71730 | 7.18379 | 4932 ft | 150 kts | 88° |
| 2026-04-26 16:20 | 50.71686 | 7.21720 | 4584 ft | 155 kts | 88° |
| 2026-04-26 16:20 | 50.71664 | 7.23419 | 4332 ft | 155 kts | 88° |
| 2026-04-26 16:21 | 50.71641 | 7.25117 | 4079 ft | 155 kts | 88° |
| 2026-04-26 16:21 | 50.71616 | 7.26806 | 3824 ft | 153 kts | 88° |
| 2026-04-26 16:21 | 50.71587 | 7.28496 | 3574 ft | 154 kts | 88° |
| 2026-04-26 16:21 | 50.71556 | 7.30169 | 3327 ft | 153 kts | 88° |
| 2026-04-26 16:22 | 50.71557 | 7.31832 | 3160 ft | 147 kts | 77° |
| 2026-04-26 16:22 | 50.72140 | 7.33003 | 3013 ft | 139 kts | 21° |
| 2026-04-26 16:22 | 50.73070 | 7.33197 | 2987 ft | 132 kts | 2° |
| 2026-04-26 16:22 | 50.73957 | 7.33206 | 2991 ft | 126 kts | 345° |
| 2026-04-26 16:23 | 50.74663 | 7.32419 | 2996 ft | 128 kts | 313° |
| 2026-04-26 16:23 | 50.75278 | 7.31379 | 2983 ft | 131 kts | 315° |
| 2026-04-26 16:23 | 50.75898 | 7.30337 | 2951 ft | 128 kts | 316° |
| 2026-04-26 16:23 | 50.76524 | 7.29360 | 2937 ft | 126 kts | 317° |
| 2026-04-26 16:24 | 50.77182 | 7.28400 | 2835 ft | 130 kts | 319° |
| 2026-04-26 16:24 | 50.77843 | 7.27458 | 2771 ft | 122 kts | 319° |
| 2026-04-26 16:24 | 50.78468 | 7.26595 | 2546 ft | 119 kts | 321° |
| 2026-04-26 16:24 | 50.79108 | 7.25741 | 2249 ft | 122 kts | 321° |
| 2026-04-26 16:25 | 50.79747 | 7.24866 | 1990 ft | 122 kts | 318° |
| 2026-04-26 16:25 | 50.80361 | 7.23977 | 1790 ft | 118 kts | 318° |
| 2026-04-26 16:25 | 50.80969 | 7.23132 | 1571 ft | 115 kts | 319° |
| 2026-04-26 16:25 | 50.81555 | 7.22284 | 1422 ft | 112 kts | 316° |
| 2026-04-26 16:26 | 50.82123 | 7.21455 | 1258 ft | 109 kts | 316° |
| 2026-04-26 16:26 | 50.82488 | 7.20926 | 1211 ft | 107 kts | 315° |
| 2026-04-26 16:26 | 50.83194 | 7.19900 | 1136 ft | 101 kts | 317° |
| 2026-04-26 16:26 | 50.83710 | 7.19130 | 976 ft | 103 kts | 318° |
| 2026-04-26 16:27 | 50.84264 | 7.18363 | 797 ft | 109 kts | 319° |
| 2026-04-26 16:27 | 50.84835 | 7.17564 | 577 ft | 108 kts | 318° |
| 2026-04-26 16:27 | 50.85374 | 7.16781 | 406 ft | 102 kts | 316° |
| 2026-04-26 16:27 | 50.85889 | 7.16022 | 446 ft | 104 kts | 315° |
| 2026-04-26 16:28 | 50.86403 | 7.15197 | 820 ft | 106 kts | 313° |
| 2026-04-26 16:28 | 50.86938 | 7.14337 | 1088 ft | 114 kts | 317° |
| 2026-04-26 16:28 | 50.87546 | 7.13488 | 1420 ft | 116 kts | 319° |
| 2026-04-26 16:28 | 50.88132 | 7.12645 | 1811 ft | 114 kts | 317° |
| 2026-04-26 16:29 | 50.88711 | 7.11797 | 2239 ft | 113 kts | 317° |
| 2026-04-26 16:29 | 50.89279 | 7.10928 | 2590 ft | 112 kts | 320° |
| 2026-04-26 16:29 | 50.89856 | 7.10168 | 2963 ft | 106 kts | 320° |
| 2026-04-26 16:29 | 50.90454 | 7.09353 | 3105 ft | 115 kts | 320° |
| 2026-04-26 16:30 | 50.91051 | 7.08524 | 3363 ft | 113 kts | 320° |
| 2026-04-26 16:30 | 50.91641 | 7.07694 | 3628 ft | 115 kts | 320° |
| 2026-04-26 16:30 | 50.92186 | 7.06767 | 3936 ft | 113 kts | 312° |
| 2026-04-26 16:30 | 50.92700 | 7.05852 | 4286 ft | 110 kts | 313° |
| 2026-04-26 16:31 | 50.93209 | 7.04964 | 4644 ft | 107 kts | 313° |
| 2026-04-26 16:31 | 50.93708 | 7.04111 | 4992 ft | 104 kts | 317° |
| 2026-04-26 16:31 | 50.94320 | 7.03290 | 5007 ft | 124 kts | 320° |
| 2026-04-26 16:31 | 50.95007 | 7.02369 | 5017 ft | 132 kts | 320° |
| 2026-04-26 16:32 | 50.95723 | 7.01406 | 5031 ft | 137 kts | 320° |
| 2026-04-26 16:32 | 50.96209 | 7.00751 | 5039 ft | 139 kts | 320° |
| 2026-04-26 16:32 | 50.97208 | 6.99408 | 5046 ft | 141 kts | 320° |
| 2026-04-26 16:32 | 50.97955 | 6.98403 | 5049 ft | 141 kts | 320° |